Hovedside
METAR-TAF:

METAR-TAF

Lufthavner :

Kajana lufthavn

Kajana, Finland

breddegrad: 64-17N, lengdegrad: 027-41E, høyde over havet: 143 m

Gjeldene værobservasjon

Denne rapporten ble laget for 27 minutter siden, klokken 18:50 UTC
Vind 4 kt fra Sørøst
Temperatur 14°C
Luftfuktighet 51%
Trykk 1020 hPa
Sikt 10 km eller mer
ingen skyer under 1500 m og ingen bygeskyer

METAR: EFKI 201850Z AUTO 14004KT CAVOK 14/04 Q1020

Tid: 22:17 (19:17 UTC)

Varsel

Denne rapporten ble laget for 1 time og 50 minutter siden, klokken 17:27 UTC
Varsel gyldig fra 20. klokken 18 UTC til 20. klokken 21 UTC
Vind 5 kt fra Sør-sørøst
Sikt 10 km eller mer
ingen skyer under 1500 m og ingen bygeskyer

TAF: EFKI 201727Z 2018/2021 16005KT CAVOK

Værobservasjoner og værvarsel for over 4000 flyplasser (METAR- og TAF-rapporter).

Tilgjengelige stasjoner er representert av de røde og gule prikkene på kartet.

Hold musepekeren over prikken for å se navnet på stasjonen.

Klikk så for å se værobservasjoner og -varsler.

For å forandre kartet kan du klikke på den grønne knappen med svart kryss for å zoome inn, på den grønne knappen med strek for å zoome ut, eller på de grønne pilene for å se tilstøtende kart.


METAR-TAF: